sensor_id;sensor_type;location;lat;lon;timestamp;pressure;altitude;pressure_sealevel;temperature;humidity
11806;BME280;5960;42.602;23.482;2022-11-20T00:01:17;92733.97;;;15.77;65.94
11806;BME280;5960;42.602;23.482;2022-11-20T00:03:46;92746.09;;;15.73;66.26
11806;BME280;5960;42.602;23.482;2022-11-20T00:06:16;92744.94;;;15.69;66.73
11806;BME280;5960;42.602;23.482;2022-11-20T00:08:43;92738.34;;;15.55;67.07
11806;BME280;5960;42.602;23.482;2022-11-20T00:11:11;92749.34;;;15.34;67.59
11806;BME280;5960;42.602;23.482;2022-11-20T00:13:39;92739.47;;;15.30;67.69
11806;BME280;5960;42.602;23.482;2022-11-20T00:16:08;92741.56;;;15.16;68.47
11806;BME280;5960;42.602;23.482;2022-11-20T00:18:35;92754.00;;;15.27;68.10
11806;BME280;5960;42.602;23.482;2022-11-20T00:21:05;92741.69;;;15.21;68.40
11806;BME280;5960;42.602;23.482;2022-11-20T00:23:33;92736.94;;;15.23;68.15
11806;BME280;5960;42.602;23.482;2022-11-20T00:26:02;92723.69;;;15.52;65.95
11806;BME280;5960;42.602;23.482;2022-11-20T00:28:29;92733.91;;;15.60;65.84
11806;BME280;5960;42.602;23.482;2022-11-20T00:31:00;92719.88;;;15.77;65.13
11806;BME280;5960;42.602;23.482;2022-11-20T00:33:28;92718.97;;;15.71;65.44
11806;BME280;5960;42.602;23.482;2022-11-20T00:35:59;92729.28;;;15.68;65.71
11806;BME280;5960;42.602;23.482;2022-11-20T00:38:27;92718.28;;;15.76;65.42
11806;BME280;5960;42.602;23.482;2022-11-20T00:40:58;92716.09;;;15.73;65.50
11806;BME280;5960;42.602;23.482;2022-11-20T00:43:25;92727.00;;;15.59;66.37
11806;BME280;5960;42.602;23.482;2022-11-20T00:45:56;92712.19;;;15.63;66.06
11806;BME280;5960;42.602;23.482;2022-11-20T00:48:23;92722.09;;;15.68;65.70
11806;BME280;5960;42.602;23.482;2022-11-20T00:50:50;92730.00;;;15.80;64.73
11806;BME280;5960;42.602;23.482;2022-11-20T00:53:16;92724.13;;;15.78;65.07
11806;BME280;5960;42.602;23.482;2022-11-20T00:55:52;92733.63;;;15.74;64.86
11806;BME280;5960;42.602;23.482;2022-11-20T00:58:19;92733.44;;;15.92;64.34
11806;BME280;5960;42.602;23.482;2022-11-20T01:00:46;92750.34;;;15.86;64.55
11806;BME280;5960;42.602;23.482;2022-11-20T01:03:12;92746.03;;;15.85;64.28
11806;BME280;5960;42.602;23.482;2022-11-20T01:05:39;92758.63;;;15.90;64.44
11806;BME280;5960;42.602;23.482;2022-11-20T01:08:06;92749.06;;;15.89;63.58
11806;BME280;5960;42.602;23.482;2022-11-20T01:10:33;92750.78;;;16.12;62.71
11806;BME280;5960;42.602;23.482;2022-11-20T01:13:01;92734.75;;;16.07;63.46
11806;BME280;5960;42.602;23.482;2022-11-20T01:15:45;92733.66;;;15.91;64.43
11806;BME280;5960;42.602;23.482;2022-11-20T01:18:12;92729.84;;;15.99;63.42
11806;BME280;5960;42.602;23.482;2022-11-20T01:20:38;92720.66;;;16.06;62.78
11806;BME280;5960;42.602;23.482;2022-11-20T01:23:05;92719.75;;;16.01;63.91
11806;BME280;5960;42.602;23.482;2022-11-20T01:25:34;92721.44;;;15.90;64.31
11806;BME280;5960;42.602;23.482;2022-11-20T01:28:02;92698.22;;;15.85;64.21
11806;BME280;5960;42.602;23.482;2022-11-20T01:30:28;92701.56;;;15.92;63.93
11806;BME280;5960;42.602;23.482;2022-11-20T01:32:55;92693.28;;;16.06;63.64
11806;BME280;5960;42.602;23.482;2022-11-20T01:35:22;92684.16;;;16.02;63.50
11806;BME280;5960;42.602;23.482;2022-11-20T01:37:49;92671.41;;;15.99;63.62
11806;BME280;5960;42.602;23.482;2022-11-20T01:40:16;92663.81;;;16.07;63.17
11806;BME280;5960;42.602;23.482;2022-11-20T01:42:46;92672.66;;;15.96;63.49
11806;BME280;5960;42.602;23.482;2022-11-20T01:46:01;92671.94;;;16.01;61.49
11806;BME280;5960;42.602;23.482;2022-11-20T01:48:33;92643.34;;;16.08;61.41
11806;BME280;5960;42.602;23.482;2022-11-20T01:51:03;92654.16;;;16.18;61.42
11806;BME280;5960;42.602;23.482;2022-11-20T01:53:32;92649.72;;;16.24;60.36
11806;BME280;5960;42.602;23.482;2022-11-20T01:56:03;92648.94;;;16.46;60.79
11806;BME280;5960;42.602;23.482;2022-11-20T01:58:35;92655.47;;;16.38;60.74
11806;BME280;5960;42.602;23.482;2022-11-20T02:01:07;92656.94;;;16.29;61.34
11806;BME280;5960;42.602;23.482;2022-11-20T02:03:33;92661.84;;;16.37;60.59
11806;BME280;5960;42.602;23.482;2022-11-20T02:06:05;92653.88;;;16.37;60.56
11806;BME280;5960;42.602;23.482;2022-11-20T02:08:36;92654.63;;;16.32;61.10
11806;BME280;5960;42.602;23.482;2022-11-20T02:11:04;92664.84;;;16.23;62.05
11806;BME280;5960;42.602;23.482;2022-11-20T02:13:31;92663.00;;;16.24;61.17
11806;BME280;5960;42.602;23.482;2022-11-20T02:16:16;92679.69;;;16.19;61.63
11806;BME280;5960;42.602;23.482;2022-11-20T02:18:46;92677.72;;;16.15;61.86
11806;BME280;5960;42.602;23.482;2022-11-20T02:21:20;92682.81;;;16.16;61.61
11806;BME280;5960;42.602;23.482;2022-11-20T02:24:00;92681.13;;;16.27;61.65
11806;BME280;5960;42.602;23.482;2022-11-20T02:26:30;92682.38;;;16.24;61.71
11806;BME280;5960;42.602;23.482;2022-11-20T02:28:58;92682.06;;;16.04;62.60
11806;BME280;5960;42.602;23.482;2022-11-20T02:31:25;92668.16;;;15.97;63.31
11806;BME280;5960;42.602;23.482;2022-11-20T02:33:55;92679.69;;;16.02;63.18
11806;BME280;5960;42.602;23.482;2022-11-20T02:36:22;92678.72;;;16.08;61.94
11806;BME280;5960;42.602;23.482;2022-11-20T02:38:49;92679.91;;;16.01;62.36
11806;BME280;5960;42.602;23.482;2022-11-20T02:41:18;92687.66;;;16.02;62.54
11806;BME280;5960;42.602;23.482;2022-11-20T02:43:45;92684.44;;;16.00;62.82
11806;BME280;5960;42.602;23.482;2022-11-20T02:46:11;92686.34;;;16.05;62.73
11806;BME280;5960;42.602;23.482;2022-11-20T02:48:38;92683.13;;;16.03;62.66
11806;BME280;5960;42.602;23.482;2022-11-20T02:51:05;92686.44;;;16.10;62.08
11806;BME280;5960;42.602;23.482;2022-11-20T02:53:31;92681.69;;;16.12;61.84
11806;BME280;5960;42.602;23.482;2022-11-20T02:55:58;92685.47;;;16.16;61.84
11806;BME280;5960;42.602;23.482;2022-11-20T02:58:26;92701.25;;;16.23;61.36
11806;BME280;5960;42.602;23.482;2022-11-20T03:00:53;92695.34;;;16.38;61.11
11806;BME280;5960;42.602;23.482;2022-11-20T03:03:19;92714.09;;;16.48;60.57
11806;BME280;5960;42.602;23.482;2022-11-20T03:05:46;92716.44;;;16.62;59.90
11806;BME280;5960;42.602;23.482;2022-11-20T03:08:13;92718.50;;;16.77;59.14
11806;BME280;5960;42.602;23.482;2022-11-20T03:10:40;92720.41;;;16.81;58.85
11806;BME280;5960;42.602;23.482;2022-11-20T03:13:06;92735.16;;;16.89;59.05
11806;BME280;5960;42.602;23.482;2022-11-20T03:15:35;92724.59;;;16.94;58.79
11806;BME280;5960;42.602;23.482;2022-11-20T03:18:03;92720.06;;;16.95;58.21
11806;BME280;5960;42.602;23.482;2022-11-20T03:20:29;92737.53;;;17.08;58.03
11806;BME280;5960;42.602;23.482;2022-11-20T03:22:56;92747.63;;;17.06;57.66
11806;BME280;5960;42.602;23.482;2022-11-20T03:25:23;92755.78;;;17.38;56.32
11806;BME280;5960;42.602;23.482;2022-11-20T03:27:50;92742.91;;;17.57;55.60
11806;BME280;5960;42.602;23.482;2022-11-20T03:30:17;92770.47;;;17.68;55.14
11806;BME280;5960;42.602;23.482;2022-11-20T03:32:45;92741.00;;;17.80;55.06
11806;BME280;5960;42.602;23.482;2022-11-20T03:35:12;92748.94;;;17.75;55.54
11806;BME280;5960;42.602;23.482;2022-11-20T03:37:38;92755.88;;;17.76;55.86
11806;BME280;5960;42.602;23.482;2022-11-20T03:40:06;92755.78;;;17.66;56.54
11806;BME280;5960;42.602;23.482;2022-11-20T03:42:33;92757.41;;;17.67;56.16
11806;BME280;5960;42.602;23.482;2022-11-20T03:45:12;92756.28;;;17.63;56.28
11806;BME280;5960;42.602;23.482;2022-11-20T03:47:39;92763.84;;;17.71;56.02
11806;BME280;5960;42.602;23.482;2022-11-20T03:50:09;92766.22;;;17.95;55.14
11806;BME280;5960;42.602;23.482;2022-11-20T03:52:37;92757.19;;;17.96;54.78
11806;BME280;5960;42.602;23.482;2022-11-20T03:55:04;92745.13;;;17.93;54.75
11806;BME280;5960;42.602;23.482;2022-11-20T03:57:31;92740.22;;;17.80;55.92
11806;BME280;5960;42.602;23.482;2022-11-20T03:59:57;92741.41;;;17.94;54.58
11806;BME280;5960;42.602;23.482;2022-11-20T04:02:24;92751.94;;;18.06;53.86
11806;BME280;5960;42.602;23.482;2022-11-20T04:04:51;92754.31;;;18.02;54.01
11806;BME280;5960;42.602;23.482;2022-11-20T04:07:19;92759.03;;;17.95;54.79
11806;BME280;5960;42.602;23.482;2022-11-20T04:09:46;92754.91;;;17.82;54.83
11806;BME280;5960;42.602;23.482;2022-11-20T04:12:13;92748.94;;;17.75;55.21
11806;BME280;5960;42.602;23.482;2022-11-20T04:14:40;92766.97;;;17.90;54.54
11806;BME280;5960;42.602;23.482;2022-11-20T04:17:07;92762.34;;;17.80;54.89
11806;BME280;5960;42.602;23.482;2022-11-20T04:19:33;92778.81;;;17.77;55.38
11806;BME280;5960;42.602;23.482;2022-11-20T04:22:00;92773.25;;;17.79;55.25
11806;BME280;5960;42.602;23.482;2022-11-20T04:24:28;92777.41;;;17.69;56.06
11806;BME280;5960;42.602;23.482;2022-11-20T04:26:55;92780.63;;;17.71;55.88
11806;BME280;5960;42.602;23.482;2022-11-20T04:29:22;92772.34;;;17.68;56.67
11806;BME280;5960;42.602;23.482;2022-11-20T04:31:48;92776.78;;;17.62;56.79
11806;BME280;5960;42.602;23.482;2022-11-20T04:34:15;92783.06;;;17.73;56.64
11806;BME280;5960;42.602;23.482;2022-11-20T04:36:42;92783.78;;;17.68;57.31
11806;BME280;5960;42.602;23.482;2022-11-20T04:39:12;92778.09;;;17.59;58.06
11806;BME280;5960;42.602;23.482;2022-11-20T04:41:40;92773.63;;;17.65;57.78
11806;BME280;5960;42.602;23.482;2022-11-20T04:44:07;92780.53;;;17.61;57.97
11806;BME280;5960;42.602;23.482;2022-11-20T04:46:36;92779.34;;;17.52;59.43
11806;BME280;5960;42.602;23.482;2022-11-20T04:49:03;92778.91;;;17.60;58.52
11806;BME280;5960;42.602;23.482;2022-11-20T04:51:31;92769.44;;;17.47;59.47
11806;BME280;5960;42.602;23.482;2022-11-20T04:53:57;92767.50;;;17.42;59.75
11806;BME280;5960;42.602;23.482;2022-11-20T04:56:24;92761.50;;;17.52;59.16
11806;BME280;5960;42.602;23.482;2022-11-20T04:58:52;92760.56;;;17.41;59.77
11806;BME280;5960;42.602;23.482;2022-11-20T05:01:21;92764.66;;;17.27;60.23
11806;BME280;5960;42.602;23.482;2022-11-20T05:03:48;92768.94;;;17.28;59.68
11806;BME280;5960;42.602;23.482;2022-11-20T05:06:17;92777.06;;;17.38;59.71
11806;BME280;5960;42.602;23.482;2022-11-20T05:08:44;92788.69;;;17.32;60.24
11806;BME280;5960;42.602;23.482;2022-11-20T05:11:12;92805.09;;;17.24;61.14
11806;BME280;5960;42.602;23.482;2022-11-20T05:13:40;92807.56;;;17.08;63.47
11806;BME280;5960;42.602;23.482;2022-11-20T05:16:10;92796.53;;;16.99;65.00
11806;BME280;5960;42.602;23.482;2022-11-20T05:18:37;92801.75;;;16.77;66.99
11806;BME280;5960;42.602;23.482;2022-11-20T05:21:05;92806.94;;;16.50;68.43
11806;BME280;5960;42.602;23.482;2022-11-20T05:23:32;92798.56;;;16.41;70.05
11806;BME280;5960;42.602;23.482;2022-11-20T05:26:00;92787.25;;;16.34;71.26
11806;BME280;5960;42.602;23.482;2022-11-20T05:28:27;92781.72;;;16.18;71.79
11806;BME280;5960;42.602;23.482;2022-11-20T05:30:54;92779.75;;;16.14;72.19
11806;BME280;5960;42.602;23.482;2022-11-20T05:33:22;92780.56;;;16.14;72.17
11806;BME280;5960;42.602;23.482;2022-11-20T05:35:49;92782.34;;;16.08;72.10
11806;BME280;5960;42.602;23.482;2022-11-20T05:38:16;92777.34;;;16.12;72.39
11806;BME280;5960;42.602;23.482;2022-11-20T05:40:43;92780.72;;;16.07;72.66
11806;BME280;5960;42.602;23.482;2022-11-20T05:43:09;92787.19;;;16.12;72.12
11806;BME280;5960;42.602;23.482;2022-11-20T05:45:36;92793.53;;;16.11;72.43
11806;BME280;5960;42.602;23.482;2022-11-20T05:48:03;92800.69;;;16.10;72.05
11806;BME280;5960;42.602;23.482;2022-11-20T05:50:31;92800.63;;;16.22;71.19
11806;BME280;5960;42.602;23.482;2022-11-20T05:52:58;92800.94;;;16.25;70.88
11806;BME280;5960;42.602;23.482;2022-11-20T05:55:25;92800.16;;;16.25;70.80
11806;BME280;5960;42.602;23.482;2022-11-20T05:57:52;92809.09;;;16.36;71.18
11806;BME280;5960;42.602;23.482;2022-11-20T06:00:20;92791.06;;;16.38;70.12
11806;BME280;5960;42.602;23.482;2022-11-20T06:02:46;92792.25;;;16.47;69.76
11806;BME280;5960;42.602;23.482;2022-11-20T06:05:13;92782.78;;;16.34;70.19
11806;BME280;5960;42.602;23.482;2022-11-20T06:07:41;92778.81;;;16.37;70.62
11806;BME280;5960;42.602;23.482;2022-11-20T06:10:09;92788.72;;;16.42;71.00
11806;BME280;5960;42.602;23.482;2022-11-20T06:12:35;92765.69;;;16.30;71.95
11806;BME280;5960;42.602;23.482;2022-11-20T06:15:03;92753.44;;;16.29;70.81
11806;BME280;5960;42.602;23.482;2022-11-20T06:17:29;92756.09;;;16.29;69.93
11806;BME280;5960;42.602;23.482;2022-11-20T06:19:56;92756.41;;;16.33;69.53
11806;BME280;5960;42.602;23.482;2022-11-20T06:22:23;92755.44;;;16.39;68.92
11806;BME280;5960;42.602;23.482;2022-11-20T06:24:51;92764.94;;;16.35;67.97
11806;BME280;5960;42.602;23.482;2022-11-20T06:27:18;92765.91;;;16.46;68.11
11806;BME280;5960;42.602;23.482;2022-11-20T06:29:44;92773.16;;;16.50;68.57
11806;BME280;5960;42.602;23.482;2022-11-20T06:32:11;92776.00;;;16.61;67.38
11806;BME280;5960;42.602;23.482;2022-11-20T06:34:38;92785.97;;;16.53;66.92
11806;BME280;5960;42.602;23.482;2022-11-20T06:37:04;92782.00;;;16.73;65.08
11806;BME280;5960;42.602;23.482;2022-11-20T06:39:31;92777.81;;;16.77;64.98
11806;BME280;5960;42.602;23.482;2022-11-20T06:41:59;92773.13;;;16.84;65.03
11806;BME280;5960;42.602;23.482;2022-11-20T06:44:26;92768.19;;;16.93;64.23
11806;BME280;5960;42.602;23.482;2022-11-20T06:46:53;92772.00;;;16.97;63.35
11806;BME280;5960;42.602;23.482;2022-11-20T06:49:19;92774.31;;;17.11;62.69
11806;BME280;5960;42.602;23.482;2022-11-20T06:51:46;92764.16;;;17.08;63.04
11806;BME280;5960;42.602;23.482;2022-11-20T06:54:13;92775.84;;;17.07;62.18
11806;BME280;5960;42.602;23.482;2022-11-20T06:56:39;92774.38;;;17.16;61.79
11806;BME280;5960;42.602;23.482;2022-11-20T06:59:07;92778.34;;;17.13;61.69
11806;BME280;5960;42.602;23.482;2022-11-20T07:01:34;92776.44;;;17.31;61.29
11806;BME280;5960;42.602;23.482;2022-11-20T07:04:01;92786.09;;;17.37;61.02
11806;BME280;5960;42.602;23.482;2022-11-20T07:06:28;92779.53;;;17.45;60.59
11806;BME280;5960;42.602;23.482;2022-11-20T07:08:55;92778.16;;;17.42;61.04
11806;BME280;5960;42.602;23.482;2022-11-20T07:11:21;92785.44;;;17.47;60.96
11806;BME280;5960;42.602;23.482;2022-11-20T07:13:48;92777.19;;;17.49;61.15
11806;BME280;5960;42.602;23.482;2022-11-20T07:16:17;92772.00;;;17.64;61.40
11806;BME280;5960;42.602;23.482;2022-11-20T07:18:43;92786.50;;;17.73;60.95
11806;BME280;5960;42.602;23.482;2022-11-20T07:21:10;92786.31;;;17.80;60.91
11806;BME280;5960;42.602;23.482;2022-11-20T07:23:37;92776.56;;;17.91;62.08
11806;BME280;5960;42.602;23.482;2022-11-20T07:26:05;92792.94;;;18.00;62.12
11806;BME280;5960;42.602;23.482;2022-11-20T07:28:33;92789.69;;;17.98;62.31
11806;BME280;5960;42.602;23.482;2022-11-20T07:31:00;92775.00;;;17.95;61.79
11806;BME280;5960;42.602;23.482;2022-11-20T07:33:28;92774.75;;;17.97;61.56
11806;BME280;5960;42.602;23.482;2022-11-20T07:35:55;92763.97;;;18.09;60.90
11806;BME280;5960;42.602;23.482;2022-11-20T07:38:22;92759.00;;;18.17;58.33
11806;BME280;5960;42.602;23.482;2022-11-20T07:40:53;92768.59;;;18.18;58.07
11806;BME280;5960;42.602;23.482;2022-11-20T07:43:20;92779.13;;;18.35;56.71
11806;BME280;5960;42.602;23.482;2022-11-20T07:45:46;92775.91;;;18.33;57.94
11806;BME280;5960;42.602;23.482;2022-11-20T07:48:13;92783.47;;;18.42;57.69
11806;BME280;5960;42.602;23.482;2022-11-20T07:50:41;92777.34;;;18.46;57.28
11806;BME280;5960;42.602;23.482;2022-11-20T07:53:08;92780.34;;;18.50;57.24
11806;BME280;5960;42.602;23.482;2022-11-20T07:55:35;92786.06;;;18.37;57.97
11806;BME280;5960;42.602;23.482;2022-11-20T07:58:01;92783.13;;;18.33;58.01
11806;BME280;5960;42.602;23.482;2022-11-20T08:00:28;92784.44;;;18.30;58.34
11806;BME280;5960;42.602;23.482;2022-11-20T08:02:55;92791.78;;;18.18;58.47
11806;BME280;5960;42.602;23.482;2022-11-20T08:05:22;92794.59;;;18.06;59.73
11806;BME280;5960;42.602;23.482;2022-11-20T08:07:50;92814.81;;;17.80;60.18
11806;BME280;5960;42.602;23.482;2022-11-20T08:10:17;92804.16;;;17.80;60.29
11806;BME280;5960;42.602;23.482;2022-11-20T08:12:44;92804.31;;;17.95;60.99
11806;BME280;5960;42.602;23.482;2022-11-20T08:15:29;92793.09;;;17.93;61.26
11806;BME280;5960;42.602;23.482;2022-11-20T08:18:00;92796.28;;;17.90;60.98
11806;BME280;5960;42.602;23.482;2022-11-20T08:20:27;92783.31;;;17.99;61.41
11806;BME280;5960;42.602;23.482;2022-11-20T08:22:59;92779.94;;;18.09;60.75
11806;BME280;5960;42.602;23.482;2022-11-20T08:25:27;92776.06;;;17.94;60.66
11806;BME280;5960;42.602;23.482;2022-11-20T08:27:54;92775.22;;;17.88;60.60
11806;BME280;5960;42.602;23.482;2022-11-20T08:30:20;92775.97;;;17.84;60.17
11806;BME280;5960;42.602;23.482;2022-11-20T08:32:47;92779.00;;;17.70;60.48
11806;BME280;5960;42.602;23.482;2022-11-20T08:35:14;92780.41;;;17.78;60.92
11806;BME280;5960;42.602;23.482;2022-11-20T08:37:41;92781.34;;;17.89;60.80
11806;BME280;5960;42.602;23.482;2022-11-20T08:40:11;92781.94;;;17.96;61.63
11806;BME280;5960;42.602;23.482;2022-11-20T08:42:46;92777.00;;;18.05;61.74
11806;BME280;5960;42.602;23.482;2022-11-20T08:45:13;92785.34;;;18.14;59.96
11806;BME280;5960;42.602;23.482;2022-11-20T08:47:39;92791.72;;;18.13;62.43
11806;BME280;5960;42.602;23.482;2022-11-20T08:50:07;92782.47;;;18.20;59.24
11806;BME280;5960;42.602;23.482;2022-11-20T08:52:34;92772.84;;;18.19;58.72
11806;BME280;5960;42.602;23.482;2022-11-20T08:55:01;92781.28;;;18.06;58.89
11806;BME280;5960;42.602;23.482;2022-11-20T08:57:31;92803.22;;;17.91;59.71
11806;BME280;5960;42.602;23.482;2022-11-20T08:59:58;92814.91;;;17.90;61.06
11806;BME280;5960;42.602;23.482;2022-11-20T09:02:24;92817.53;;;17.85;61.11
11806;BME280;5960;42.602;23.482;2022-11-20T09:04:51;92813.72;;;17.75;61.32
11806;BME280;5960;42.602;23.482;2022-11-20T09:07:18;92814.34;;;17.60;62.07
11806;BME280;5960;42.602;23.482;2022-11-20T09:09:45;92817.84;;;17.66;62.42
11806;BME280;5960;42.602;23.482;2022-11-20T09:12:13;92816.50;;;17.64;62.95
11806;BME280;5960;42.602;23.482;2022-11-20T09:14:41;92818.75;;;17.72;63.05
11806;BME280;5960;42.602;23.482;2022-11-20T09:17:09;92824.09;;;17.77;64.65
11806;BME280;5960;42.602;23.482;2022-11-20T09:19:38;92828.75;;;17.87;65.40
11806;BME280;5960;42.602;23.482;2022-11-20T09:22:05;92825.03;;;17.88;65.87
11806;BME280;5960;42.602;23.482;2022-11-20T09:24:32;92825.91;;;17.94;66.63
11806;BME280;5960;42.602;23.482;2022-11-20T09:27:02;92823.47;;;17.92;63.45
11806;BME280;5960;42.602;23.482;2022-11-20T09:29:28;92813.47;;;17.99;63.88
11806;BME280;5960;42.602;23.482;2022-11-20T09:31:57;92818.84;;;18.04;65.13
11806;BME280;5960;42.602;23.482;2022-11-20T09:34:23;92819.66;;;18.05;67.02
11806;BME280;5960;42.602;23.482;2022-11-20T09:36:50;92825.97;;;17.99;68.12
11806;BME280;5960;42.602;23.482;2022-11-20T09:39:17;92817.91;;;17.94;68.77
11806;BME280;5960;42.602;23.482;2022-11-20T09:42:08;92818.88;;;18.10;66.52
11806;BME280;5960;42.602;23.482;2022-11-20T09:44:54;92808.53;;;18.13;67.27
11806;BME280;5960;42.602;23.482;2022-11-20T09:47:37;92812.19;;;18.34;67.07
11806;BME280;5960;42.602;23.482;2022-11-20T09:50:20;92805.13;;;18.50;66.84
11806;BME280;5960;42.602;23.482;2022-11-20T09:52:58;92821.47;;;18.59;66.21
11806;BME280;5960;42.602;23.482;2022-11-20T09:55:29;92825.44;;;18.24;66.94
11806;BME280;5960;42.602;23.482;2022-11-20T09:57:57;92819.00;;;17.98;68.01
11806;BME280;5960;42.602;23.482;2022-11-20T10:00:26;92829.38;;;17.94;68.28
11806;BME280;5960;42.602;23.482;2022-11-20T10:03:00;92824.44;;;17.81;68.25
11806;BME280;5960;42.602;23.482;2022-11-20T10:05:31;92817.13;;;17.71;69.29
11806;BME280;5960;42.602;23.482;2022-11-20T10:08:09;92796.59;;;17.71;70.35
11806;BME280;5960;42.602;23.482;2022-11-20T10:10:44;92790.72;;;17.69;70.19
11806;BME280;5960;42.602;23.482;2022-11-20T10:13:26;92765.47;;;17.50;71.43
11806;BME280;5960;42.602;23.482;2022-11-20T10:16:02;92776.06;;;17.44;71.83
11806;BME280;5960;42.602;23.482;2022-11-20T10:18:42;92784.34;;;17.26;72.80
11806;BME280;5960;42.602;23.482;2022-11-20T10:21:22;92788.44;;;16.94;73.51
11806;BME280;5960;42.602;23.482;2022-11-20T10:24:23;92794.91;;;16.64;75.65
11806;BME280;5960;42.602;23.482;2022-11-20T10:26:58;92792.41;;;16.23;77.49
11806;BME280;5960;42.602;23.482;2022-11-20T10:29:32;92787.50;;;16.15;78.16
11806;BME280;5960;42.602;23.482;2022-11-20T10:32:02;92791.97;;;15.98;78.88
11806;BME280;5960;42.602;23.482;2022-11-20T10:34:34;92779.44;;;16.10;78.94
11806;BME280;5960;42.602;23.482;2022-11-20T10:37:09;92784.16;;;15.79;79.35
11806;BME280;5960;42.602;23.482;2022-11-20T10:39:41;92778.94;;;15.55;80.69
11806;BME280;5960;42.602;23.482;2022-11-20T10:42:14;92785.03;;;15.68;80.42
11806;BME280;5960;42.602;23.482;2022-11-20T10:44:47;92786.13;;;15.84;79.85
11806;BME280;5960;42.602;23.482;2022-11-20T10:47:31;92780.94;;;15.89;79.02
11806;BME280;5960;42.602;23.482;2022-11-20T10:50:03;92769.25;;;15.90;79.01
11806;BME280;5960;42.602;23.482;2022-11-20T10:52:34;92766.66;;;15.66;79.67
11806;BME280;5960;42.602;23.482;2022-11-20T10:55:23;92757.72;;;15.55;80.18
11806;BME280;5960;42.602;23.482;2022-11-20T10:57:57;92760.34;;;15.55;79.39
11806;BME280;5960;42.602;23.482;2022-11-20T11:00:30;92768.31;;;15.55;79.60
11806;BME280;5960;42.602;23.482;2022-11-20T11:02:57;92759.66;;;15.60;79.96
11806;BME280;5960;42.602;23.482;2022-11-20T11:05:35;92748.28;;;15.76;80.08
11806;BME280;5960;42.602;23.482;2022-11-20T11:08:07;92752.53;;;16.06;78.01
11806;BME280;5960;42.602;23.482;2022-11-20T11:10:41;92761.16;;;16.14;77.92
11806;BME280;5960;42.602;23.482;2022-11-20T11:13:19;92753.09;;;16.25;77.87
11806;BME280;5960;42.602;23.482;2022-11-20T11:15:47;92768.34;;;16.30;77.33
11806;BME280;5960;42.602;23.482;2022-11-20T11:18:23;92772.44;;;16.38;76.85
11806;BME280;5960;42.602;23.482;2022-11-20T11:20:52;92776.00;;;16.44;76.78
11806;BME280;5960;42.602;23.482;2022-11-20T11:23:30;92784.91;;;16.37;76.98
11806;BME280;5960;42.602;23.482;2022-11-20T11:25:59;92791.53;;;16.35;77.95
11806;BME280;5960;42.602;23.482;2022-11-20T11:28:27;92807.75;;;16.33;78.10
11806;BME280;5960;42.602;23.482;2022-11-20T11:30:54;92808.16;;;16.42;77.77
11806;BME280;5960;42.602;23.482;2022-11-20T11:33:22;92821.19;;;16.44;78.89
11806;BME280;5960;42.602;23.482;2022-11-20T11:35:53;92827.72;;;16.36;79.45
11806;BME280;5960;42.602;23.482;2022-11-20T11:38:28;92817.47;;;16.28;79.76
11806;BME280;5960;42.602;23.482;2022-11-20T11:40:56;92828.56;;;16.24;80.02
11806;BME280;5960;42.602;23.482;2022-11-20T11:43:25;92854.13;;;15.97;80.65
11806;BME280;5960;42.602;23.482;2022-11-20T11:46:25;92892.25;;;15.78;82.27
11806;BME280;5960;42.602;23.482;2022-11-20T11:49:00;92890.22;;;15.69;83.68
11806;BME280;5960;42.602;23.482;2022-11-20T11:51:33;92871.78;;;15.50;84.22
11806;BME280;5960;42.602;23.482;2022-11-20T11:54:05;92862.09;;;15.44;84.43
11806;BME280;5960;42.602;23.482;2022-11-20T11:56:40;92841.78;;;15.26;77.73
11806;BME280;5960;42.602;23.482;2022-11-20T11:59:12;92821.97;;;15.28;76.62
11806;BME280;5960;42.602;23.482;2022-11-20T12:01:45;92811.47;;;15.22;75.55
11806;BME280;5960;42.602;23.482;2022-11-20T12:04:18;92827.66;;;14.96;70.34
11806;BME280;5960;42.602;23.482;2022-11-20T12:06:53;92808.13;;;14.43;72.20
11806;BME280;5960;42.602;23.482;2022-11-20T12:09:24;92828.84;;;14.34;72.24
11806;BME280;5960;42.602;23.482;2022-11-20T12:11:56;92814.72;;;14.10;73.39
11806;BME280;5960;42.602;23.482;2022-11-20T12:14:33;92827.94;;;13.98;74.26
11806;BME280;5960;42.602;23.482;2022-11-20T12:17:01;92817.09;;;13.88;74.39
11806;BME280;5960;42.602;23.482;2022-11-20T12:19:29;92824.44;;;13.86;75.06
11806;BME280;5960;42.602;23.482;2022-11-20T12:22:04;92812.19;;;13.73;76.17
11806;BME280;5960;42.602;23.482;2022-11-20T12:24:43;92808.63;;;13.67;76.44
11806;BME280;5960;42.602;23.482;2022-11-20T12:27:32;92799.50;;;13.63;77.90
11806;BME280;5960;42.602;23.482;2022-11-20T12:30:08;92798.06;;;13.79;77.39
11806;BME280;5960;42.602;23.482;2022-11-20T13:24:28;92704.50;;;14.56;81.19
11806;BME280;5960;42.602;23.482;2022-11-20T13:27:04;92719.06;;;14.42;82.48
11806;BME280;5960;42.602;23.482;2022-11-20T13:29:31;92726.75;;;14.20;82.59
11806;BME280;5960;42.602;23.482;2022-11-20T13:32:04;92750.72;;;14.25;82.80
11806;BME280;5960;42.602;23.482;2022-11-20T13:34:31;92758.91;;;14.11;83.31
11806;BME280;5960;42.602;23.482;2022-11-20T13:36:59;92760.50;;;14.12;83.75
11806;BME280;5960;42.602;23.482;2022-11-20T13:39:32;92752.19;;;14.09;84.52
11806;BME280;5960;42.602;23.482;2022-11-20T13:42:01;92744.22;;;13.97;84.52
11806;BME280;5960;42.602;23.482;2022-11-20T13:44:35;92738.59;;;13.93;84.84
11806;BME280;5960;42.602;23.482;2022-11-20T13:47:04;92734.81;;;14.13;84.00
11806;BME280;5960;42.602;23.482;2022-11-20T13:49:44;92732.63;;;14.22;83.17
11806;BME280;5960;42.602;23.482;2022-11-20T13:52:34;92727.13;;;14.23;82.24
11806;BME280;5960;42.602;23.482;2022-11-20T13:55:16;92705.94;;;14.35;81.07
11806;BME280;5960;42.602;23.482;2022-11-20T13:57:57;92758.56;;;14.43;82.15
11806;BME280;5960;42.602;23.482;2022-11-20T14:00:27;92757.88;;;14.36;82.79
11806;BME280;5960;42.602;23.482;2022-11-20T14:03:09;92759.59;;;14.30;82.40
11806;BME280;5960;42.602;23.482;2022-11-20T14:05:48;92774.69;;;14.30;82.94